Time;durP1;ratioP1;P1;durP2;ratioP2;P2;SDS_P1;SDS_P2;PMS_P1;PMS_P2;Temp;Humidity;BMP_temperature;BMP_pressure;BME280_temperature;BME280_humidity;BME280_pressure;Samples;Min_cycle;Max_cycle;Signal;HPM_P1;HPM_P2
2023/04/18 00:00:31;;;;;;;21.80;14.77;;;5.50;69.20;;;;;;5052922;28;20067;-76
2023/04/18 00:02:57;;;;;;;21.70;15.40;;;5.50;69.40;;;;;;5069362;28;20050;-76
2023/04/18 00:05:23;;;;;;;21.90;14.10;;;5.50;69.50;;;;;;5070166;28;20048;-76
2023/04/18 00:07:50;;;;;;;21.37;14.90;;;5.50;69.70;;;;;;5032688;28;20132;-76
2023/04/18 00:10:16;;;;;;;25.67;15.57;;;5.50;69.80;;;;;;5052325;28;20044;-76
2023/04/18 00:12:41;;;;;;;19.57;14.03;;;5.50;69.80;;;;;;5070318;28;20105;-77
2023/04/18 00:15:08;;;;;;;17.47;13.77;;;5.50;69.90;;;;;;5036783;28;20135;-77
2023/04/18 00:17:37;;;;;;;24.30;13.50;;;5.50;70.00;;;;;;5052125;28;20060;-75
2023/04/18 00:20:05;;;;;;;22.07;13.83;;;5.50;70.10;;;;;;5032754;28;20053;-78
2023/04/18 00:22:30;;;;;;;21.20;13.70;;;5.60;70.20;;;;;;5032012;28;20488;-77
2023/04/18 00:24:56;;;;;;;20.53;14.33;;;5.60;70.10;;;;;;5050354;28;20037;-77
2023/04/18 00:27:22;;;;;;;18.10;14.00;;;5.70;70.20;;;;;;5015990;28;20415;-77
2023/04/18 00:29:48;;;;;;;22.53;13.83;;;5.60;70.30;;;;;;5049971;28;20060;-77
2023/04/18 00:32:14;;;;;;;23.07;13.57;;;5.60;70.40;;;;;;5057374;28;20053;-77
2023/04/18 00:34:40;;;;;;;23.00;14.10;;;5.60;70.50;;;;;;5070539;28;20048;-76
2023/04/18 00:37:06;;;;;;;18.93;14.17;;;5.50;70.70;;;;;;5054054;28;20049;-76
2023/04/18 00:39:35;;;;;;;18.80;13.90;;;5.50;70.90;;;;;;5070202;28;20048;-77
2023/04/18 00:42:02;;;;;;;20.93;14.67;;;5.60;70.80;;;;;;5069575;28;20437;-77
2023/04/18 00:44:29;;;;;;;20.53;13.50;;;5.60;70.90;;;;;;5069151;28;20036;-77
2023/04/18 00:46:55;;;;;;;21.43;13.33;;;5.60;71.00;;;;;;5055048;28;20095;-76
2023/04/18 00:49:22;;;;;;;20.43;13.40;;;5.50;71.00;;;;;;5069051;28;20618;-77
2023/04/18 00:51:49;;;;;;;19.53;13.03;;;5.50;71.10;;;;;;5052348;28;20080;-77
2023/04/18 00:54:16;;;;;;;18.07;12.13;;;5.50;71.20;;;;;;5050252;28;20183;-76
2023/04/18 00:56:43;;;;;;;19.37;11.87;;;5.50;71.20;;;;;;5036984;28;20059;-75
2023/04/18 00:59:10;;;;;;;14.60;11.57;;;5.50;71.20;;;;;;5068105;28;20055;-77
2023/04/18 01:01:36;;;;;;;18.30;11.77;;;5.50;71.30;;;;;;5069278;28;20048;-76
2023/04/18 01:04:02;;;;;;;15.10;11.27;;;5.50;71.20;;;;;;5049865;28;20127;-76
2023/04/18 01:06:28;;;;;;;16.93;11.63;;;5.50;71.20;;;;;;5057349;28;20135;-75
2023/04/18 01:08:55;;;;;;;17.63;12.20;;;5.50;71.20;;;;;;5042743;28;20056;-77
2023/04/18 01:11:21;;;;;;;18.20;11.83;;;5.50;71.20;;;;;;5030422;28;20088;-76
2023/04/18 01:14:07;;;;;;;19.63;11.37;;;5.50;71.40;;;;;;5030732;28;20056;-77
2023/04/18 01:16:33;;;;;;;16.73;10.80;;;5.50;71.40;;;;;;5035999;28;20080;-74
2023/04/18 01:19:03;;;;;;;16.53;12.17;;;5.50;71.30;;;;;;5063799;28;20049;-75
2023/04/18 01:21:30;;;;;;;16.57;11.40;;;5.50;71.30;;;;;;5048901;28;20102;-77
2023/04/18 01:24:16;;;;;;;18.00;11.70;;;5.50;71.30;;;;;;5030775;28;20492;-77
2023/04/18 01:26:46;;;;;;;19.33;11.70;;;5.50;71.50;;;;;;5016366;28;20041;-73
2023/04/18 01:29:12;;;;;;;17.93;11.43;;;5.50;71.40;;;;;;5047315;28;20060;-75
2023/04/18 01:31:39;;;;;;;15.70;11.00;;;5.50;71.30;;;;;;5044242;28;20135;-76
2023/04/18 01:34:05;;;;;;;15.43;10.63;;;5.50;71.30;;;;;;5068049;28;20044;-74
2023/04/18 01:36:31;;;;;;;15.23;11.10;;;5.50;71.20;;;;;;5035807;28;20457;-77
2023/04/18 01:38:58;;;;;;;20.23;12.00;;;5.50;71.20;;;;;;5047778;28;20135;-76
2023/04/18 01:41:24;;;;;;;16.23;10.90;;;5.50;71.10;;;;;;5048775;28;20087;-76
2023/04/18 01:43:49;;;;;;;15.03;11.03;;;5.50;71.10;;;;;;5047312;28;20080;-75
2023/04/18 01:46:15;;;;;;;15.60;10.13;;;5.50;71.10;;;;;;5038029;28;20045;-72
2023/04/18 01:48:41;;;;;;;15.67;10.93;;;5.50;71.20;;;;;;5056813;28;20403;-77
2023/04/18 01:51:07;;;;;;;16.17;10.50;;;5.50;71.20;;;;;;5069031;28;20381;-76
2023/04/18 01:53:33;;;;;;;15.43;10.23;;;5.50;71.20;;;;;;5068114;28;20078;-75
2023/04/18 01:55:59;;;;;;;16.63;10.33;;;5.40;71.20;;;;;;5034836;28;20053;-75
2023/04/18 01:58:25;;;;;;;15.13;9.97;;;5.40;71.30;;;;;;5033817;28;20055;-76
2023/04/18 02:00:56;;;;;;;13.97;10.13;;;5.40;71.20;;;;;;5068810;28;20083;-76
2023/04/18 02:03:22;;;;;;;10.43;7.40;;;5.40;71.20;;;;;;5067964;28;20469;-76
2023/04/18 02:05:48;;;;;;;13.33;9.03;;;5.40;71.20;;;;;;5068860;28;20113;-76
2023/04/18 02:08:13;;;;;;;13.00;9.13;;;5.40;71.10;;;;;;5038969;28;20053;-75
2023/04/18 02:10:39;;;;;;;13.40;8.43;;;5.40;71.10;;;;;;5048930;28;20099;-75
2023/04/18 02:13:05;;;;;;;12.87;9.07;;;5.30;71.00;;;;;;5048383;28;20052;-76
2023/04/18 02:15:31;;;;;;;11.30;8.50;;;5.40;71.00;;;;;;5048807;28;20478;-76
2023/04/18 02:17:58;;;;;;;12.67;9.33;;;5.40;71.00;;;;;;5056426;28;20443;-76
2023/04/18 02:20:25;;;;;;;12.03;8.40;;;5.30;71.00;;;;;;5054808;28;20059;-76
2023/04/18 02:22:51;;;;;;;12.17;7.80;;;5.40;71.00;;;;;;5047154;28;20053;-74
2023/04/18 02:25:17;;;;;;;12.87;8.57;;;5.30;70.90;;;;;;5049162;28;20052;-75
2023/04/18 02:27:43;;;;;;;13.20;8.67;;;5.40;70.80;;;;;;5032227;28;20053;-74
2023/04/18 02:30:09;;;;;;;13.67;8.67;;;5.30;70.90;;;;;;5050020;28;20041;-76
2023/04/18 02:32:35;;;;;;;12.83;8.70;;;5.30;70.90;;;;;;5071414;28;20272;-77
2023/04/18 02:35:01;;;;;;;12.90;7.90;;;5.30;71.00;;;;;;5072469;28;20037;-77
2023/04/18 02:37:26;;;;;;;12.93;8.87;;;5.30;70.90;;;;;;5056799;28;20084;-77
2023/04/18 02:39:52;;;;;;;13.50;8.57;;;5.40;71.10;;;;;;5072818;28;20094;-76
2023/04/18 02:42:18;;;;;;;12.40;8.50;;;5.40;71.10;;;;;;5071183;28;20048;-78
2023/04/18 02:44:44;;;;;;;12.07;8.57;;;5.50;71.20;;;;;;5072789;28;20051;-77
2023/04/18 02:47:09;;;;;;;12.17;8.80;;;5.50;71.20;;;;;;5048980;28;20488;-77
2023/04/18 02:49:35;;;;;;;12.70;8.63;;;5.50;71.30;;;;;;5060128;28;20475;-77
2023/04/18 02:52:01;;;;;;;10.83;8.23;;;5.50;71.30;;;;;;5072004;28;20525;-76
2023/04/18 02:54:26;;;;;;;14.87;9.17;;;5.50;71.40;;;;;;5071607;28;20072;-75
2023/04/18 02:56:55;;;;;;;12.87;8.27;;;5.50;71.50;;;;;;5056007;28;20040;-75
2023/04/18 02:59:21;;;;;;;12.80;8.63;;;5.60;71.50;;;;;;5070756;28;20079;-76
2023/04/18 03:01:47;;;;;;;12.33;8.47;;;5.60;71.50;;;;;;5071632;28;20475;-76
2023/04/18 03:04:12;;;;;;;12.63;8.40;;;5.60;71.50;;;;;;5052023;28;20075;-75
2023/04/18 03:06:38;;;;;;;13.93;8.23;;;5.70;71.40;;;;;;5057950;28;20048;-76
2023/04/18 03:09:04;;;;;;;12.77;8.10;;;5.70;71.50;;;;;;5069491;28;20399;-75
2023/04/18 03:11:29;;;;;;;11.83;8.57;;;5.70;71.50;;;;;;5054469;28;20098;-77
2023/04/18 03:13:55;;;;;;;18.37;8.37;;;5.80;71.40;;;;;;5070371;28;20502;-77
2023/04/18 03:16:21;;;;;;;11.77;8.07;;;5.80;71.30;;;;;;5042056;28;20040;-76
2023/04/18 03:18:47;;;;;;;12.90;8.50;;;5.90;71.20;;;;;;5050252;28;20108;-77
2023/04/18 03:21:13;;;;;;;13.90;8.50;;;5.90;71.20;;;;;;5051933;28;20053;-76
2023/04/18 03:23:39;;;;;;;12.83;8.10;;;6.00;71.10;;;;;;5050972;28;20509;-76
2023/04/18 03:26:11;;;;;;;12.20;8.33;;;5.90;71.20;;;;;;5031296;28;20136;-73
2023/04/18 03:28:37;;;;;;;13.07;8.20;;;5.90;71.20;;;;;;5044854;28;20057;-77
2023/04/18 03:31:02;;;;;;;11.77;8.10;;;6.00;71.20;;;;;;5033769;28;20049;-76
2023/04/18 03:33:28;;;;;;;11.67;7.73;;;6.00;71.20;;;;;;5060590;28;20106;-77
2023/04/18 03:35:54;;;;;;;11.40;8.40;;;6.00;71.20;;;;;;5071270;28;20045;-77
2023/04/18 03:38:20;;;;;;;10.57;7.57;;;6.00;71.20;;;;;;5037963;28;20056;-76
2023/04/18 03:40:45;;;;;;;12.50;7.93;;;6.00;71.10;;;;;;5053712;28;20099;-77
2023/04/18 03:43:11;;;;;;;12.53;8.07;;;6.00;71.10;;;;;;5069167;28;20091;-76
2023/04/18 03:45:37;;;;;;;11.50;8.13;;;6.00;71.10;;;;;;5053517;28;20072;-77
2023/04/18 03:48:03;;;;;;;13.70;8.17;;;6.00;71.10;;;;;;5055352;28;20128;-77
2023/04/18 03:50:29;;;;;;;12.33;8.67;;;6.00;71.10;;;;;;5057212;28;20136;-76
2023/04/18 03:52:54;;;;;;;12.33;7.67;;;6.00;71.20;;;;;;5037005;28;20488;-76
2023/04/18 03:55:20;;;;;;;11.87;8.00;;;6.00;71.10;;;;;;5070573;28;20116;-76
2023/04/18 03:57:46;;;;;;;14.67;7.87;;;6.10;71.10;;;;;;5037048;28;20040;-76
2023/04/18 04:00:13;;;;;;;10.97;8.00;;;6.10;71.20;;;;;;5070894;28;20037;-75
2023/04/18 04:02:39;;;;;;;14.07;8.97;;;6.10;71.00;;;;;;5069353;28;20119;-77
2023/04/18 04:05:05;;;;;;;13.20;8.13;;;6.10;71.10;;;;;;5048767;28;20162;-77
2023/04/18 04:07:33;;;;;;;14.87;7.77;;;6.10;71.00;;;;;;5045440;28;20330;-77
2023/04/18 04:09:59;;;;;;;11.27;8.23;;;6.10;71.10;;;;;;5069512;28;20036;-75
2023/04/18 04:12:25;;;;;;;12.47;7.80;;;6.10;71.20;;;;;;5060120;28;20075;-75
2023/04/18 04:14:51;;;;;;;13.80;8.43;;;6.10;71.10;;;;;;5081639;28;20040;-77
2023/04/18 04:17:17;;;;;;;14.13;9.03;;;6.10;71.10;;;;;;5058675;28;20410;-76
2023/04/18 04:19:42;;;;;;;13.90;8.73;;;6.10;71.10;;;;;;5058550;28;20041;-78
2023/04/18 04:22:08;;;;;;;12.60;8.27;;;6.10;71.10;;;;;;5062112;28;20048;-77
2023/04/18 04:24:37;;;;;;;12.33;9.13;;;6.10;71.10;;;;;;5045396;28;20051;-77
2023/04/18 04:27:04;;;;;;;12.10;8.77;;;6.10;71.10;;;;;;5053842;28;20045;-76
2023/04/18 04:29:30;;;;;;;11.53;8.70;;;6.10;71.10;;;;;;5052007;28;20545;-76
2023/04/18 04:31:55;;;;;;;15.87;9.60;;;6.10;71.10;;;;;;5068851;28;20070;-77
2023/04/18 04:34:21;;;;;;;12.90;9.20;;;6.10;71.20;;;;;;5041187;28;20493;-78
2023/04/18 04:40:27;;;;;;;17.07;9.10;;;6.20;71.30;;;;;;5075294;22;20063;-75
2023/04/18 06:58:07;;;;;;;11.83;9.37;;;8.30;66.20;;;;;;518519;26;20305;-75
2023/04/18 07:00:32;;;;;;;15.47;9.73;;;8.30;65.70;;;;;;5040369;28;20348;-75
2023/04/18 07:03:00;;;;;;;14.50;9.30;;;8.40;66.00;;;;;;5042283;28;20052;-76
2023/04/18 07:05:26;;;;;;;12.57;9.30;;;8.50;65.60;;;;;;5063313;28;20105;-77
2023/04/18 07:07:51;;;;;;;14.97;10.03;;;8.50;65.40;;;;;;5049934;28;20052;-75
2023/04/18 07:10:17;;;;;;;13.63;9.87;;;8.60;65.00;;;;;;5055400;28;20818;-77
2023/04/18 07:12:43;;;;;;;12.97;10.20;;;8.60;65.10;;;;;;5044048;28;20049;-77
2023/04/18 07:15:09;;;;;;;16.07;9.40;;;8.90;65.40;;;;;;5043442;28;20056;-77
2023/04/18 07:17:35;;;;;;;16.93;9.60;;;9.20;64.70;;;;;;5027647;28;20041;-77
2023/04/18 07:20:01;;;;;;;12.50;10.03;;;9.10;64.00;;;;;;5040723;28;20410;-76
2023/04/18 07:22:27;;;;;;;15.03;9.70;;;9.00;63.90;;;;;;5041957;28;20060;-79
2023/04/18 07:24:52;;;;;;;14.63;9.60;;;8.80;64.00;;;;;;5060731;28;20041;-75
2023/04/18 07:27:18;;;;;;;16.90;9.80;;;8.80;64.20;;;;;;5032119;28;20049;-77
2023/04/18 07:29:44;;;;;;;15.13;10.13;;;8.70;63.90;;;;;;5061616;28;20049;-76
2023/04/18 07:32:09;;;;;;;16.77;10.50;;;8.70;64.10;;;;;;5040783;28;20036;-76
2023/04/18 07:34:36;;;;;;;13.90;9.87;;;8.80;64.50;;;;;;5060048;28;20052;-78
2023/04/18 07:37:02;;;;;;;12.10;9.10;;;8.90;64.50;;;;;;5019044;28;20501;-74
2023/04/18 07:39:27;;;;;;;12.97;9.63;;;8.90;64.40;;;;;;5060028;28;20048;-76
2023/04/18 07:41:53;;;;;;;15.90;9.67;;;8.90;64.30;;;;;;5060111;28;20085;-75
2023/04/18 07:44:20;;;;;;;13.93;9.70;;;9.00;64.20;;;;;;5059047;28;20045;-77
2023/04/18 07:46:46;;;;;;;12.80;9.47;;;9.00;64.40;;;;;;5026477;28;20052;-78
2023/04/18 07:49:12;;;;;;;15.70;9.77;;;9.00;64.10;;;;;;5058393;28;20063;-75
2023/04/18 07:51:37;;;;;;;14.07;9.63;;;9.10;63.80;;;;;;5060509;28;20048;-76
2023/04/18 07:54:03;;;;;;;16.90;9.43;;;9.10;63.90;;;;;;5046816;28;20074;-75
2023/04/18 07:56:29;;;;;;;14.00;9.67;;;9.20;63.90;;;;;;5046787;28;20119;-74
2023/04/18 07:58:55;;;;;;;14.23;9.60;;;9.20;63.70;;;;;;5058950;28;20072;-76
2023/04/18 08:01:23;;;;;;;17.20;8.97;;;9.20;63.70;;;;;;5060693;28;20632;-75
2023/04/18 08:03:50;;;;;;;13.50;9.67;;;9.20;63.80;;;;;;5059394;28;20040;-75
2023/04/18 08:06:16;;;;;;;15.83;8.90;;;9.40;64.10;;;;;;5031927;28;20056;-77
2023/04/18 08:08:42;;;;;;;13.30;9.53;;;9.40;63.50;;;;;;5052590;28;20056;-76
2023/04/18 08:11:08;;;;;;;13.50;8.90;;;9.60;63.50;;;;;;5059911;28;20087;-76
2023/04/18 08:13:34;;;;;;;14.87;9.70;;;9.70;63.60;;;;;;5040682;28;20491;-76
2023/04/18 08:16:01;;;;;;;13.20;9.27;;;9.70;63.40;;;;;;5042031;28;20048;-75
2023/04/18 08:18:27;;;;;;;14.90;9.87;;;9.70;63.30;;;;;;5008177;28;20045;-75
2023/04/18 08:20:53;;;;;;;12.70;9.07;;;9.70;63.40;;;;;;5059832;28;20299;-76
2023/04/18 08:23:18;;;;;;;15.10;9.03;;;9.80;63.50;;;;;;5057920;28;20553;-77
2023/04/18 08:25:44;;;;;;;16.57;9.47;;;10.00;62.90;;;;;;5057916;28;20044;-77
2023/04/18 08:28:10;;;;;;;13.17;9.10;;;10.30;62.90;;;;;;5024681;28;20033;-77
2023/04/18 08:30:36;;;;;;;14.57;8.93;;;10.60;62.90;;;;;;5060262;28;20086;-76
2023/04/18 08:33:02;;;;;;;14.97;9.73;;;10.60;62.80;;;;;;5059488;28;20051;-77
2023/04/18 08:35:27;;;;;;;12.30;8.43;;;10.40;62.50;;;;;;5060365;28;20562;-75
2023/04/18 08:37:53;;;;;;;14.60;8.53;;;10.30;62.50;;;;;;5025996;28;20094;-76
2023/04/18 08:40:19;;;;;;;12.63;8.77;;;10.20;62.50;;;;;;5061107;28;20088;-76
2023/04/18 08:42:45;;;;;;;12.40;8.93;;;10.20;62.80;;;;;;5059517;28;20056;-76
2023/04/18 08:45:15;;;;;;;12.53;7.97;;;10.30;63.10;;;;;;5059899;28;20045;-77
2023/04/18 08:47:41;;;;;;;12.10;8.50;;;10.30;62.50;;;;;;5025008;28;20411;-76
2023/04/18 08:50:08;;;;;;;12.73;8.43;;;10.40;62.80;;;;;;5059190;28;20804;-76
2023/04/18 08:52:40;;;;;;;11.17;7.63;;;10.50;62.50;;;;;;5040975;28;20163;-75
2023/04/18 08:55:06;;;;;;;;;;;10.70;62.40;;;;;;5046008;28;20098;-75
2023/04/18 08:57:32;;;;;;;11.10;7.68;;;10.90;61.70;;;;;;5042971;28;20102;-78
2023/04/18 09:00:00;;;;;;;11.20;7.78;;;11.10;62.50;;;;;;5059886;28;20469;-76
2023/04/18 09:02:45;;;;;;;11.13;7.88;;;11.30;62.40;;;;;;5039458;28;20568;-78
2023/04/18 09:05:15;;;;;;;13.15;7.68;;;11.50;61.70;;;;;;5041224;28;20415;-77
2023/04/18 09:07:42;;;;;;;11.10;6.80;;;11.50;62.60;;;;;;5042404;28;20052;-77
2023/04/18 09:10:08;;;;;;;9.13;6.30;;;11.90;62.10;;;;;;5057782;28;20333;-76
2023/04/18 09:12:43;;;;;;;11.70;7.10;;;12.50;60.90;;;;;;5057524;28;20048;-76
2023/04/18 09:15:14;;;;;;;11.57;6.63;;;12.70;58.50;;;;;;5057777;28;20041;-76
2023/04/18 09:17:44;;;;;;;8.77;6.25;;;12.80;59.50;;;;;;5023556;28;20106;-75
2023/04/18 09:20:14;;;;;;;8.75;6.50;;;12.50;59.10;;;;;;5039969;28;20045;-75
2023/04/18 09:22:49;;;;;;;11.18;6.32;;;12.50;59.20;;;;;;5057662;28;20391;-77
2023/04/18 09:25:40;;;;;;;7.60;6.32;;;12.50;59.10;;;;;;5058570;28;20479;-77
2023/04/18 09:28:27;;;;;;;7.93;6.30;;;12.70;59.00;;;;;;5040974;28;20055;-78
2023/04/18 09:30:56;;;;;;;8.30;5.55;;;13.00;56.90;;;;;;5057656;28;20055;-76
2023/04/18 09:33:31;;;;;;;13.30;6.25;;;12.80;59.10;;;;;;5057288;28;20426;-77
2023/04/18 09:36:16;;;;;;;10.50;6.80;;;12.70;58.70;;;;;;5058186;28;20040;-78
2023/04/18 09:38:42;;;;;;;7.68;5.75;;;12.90;58.00;;;;;;5052653;28;20044;-74
2023/04/18 09:41:12;;;;;;;8.55;6.28;;;13.00;59.00;;;;;;5038720;28;20332;-77
2023/04/18 09:43:38;;;;;;;9.50;6.60;;;12.90;59.30;;;;;;5055507;28;20058;-75
2023/04/18 09:46:04;;;;;;;9.20;6.65;;;12.90;59.00;;;;;;5038563;28;20487;-75
2023/04/18 09:48:30;;;;;;;8.02;5.78;;;12.80;59.60;;;;;;5006831;28;20052;-75
2023/04/18 09:51:00;;;;;;;7.93;6.53;;;12.80;60.00;;;;;;5057001;28;20049;-77
2023/04/18 09:53:27;;;;;;;12.32;5.80;;;12.70;59.70;;;;;;5061291;28;20054;-75
2023/04/18 09:55:53;;;;;;;7.82;5.63;;;12.60;60.00;;;;;;5039423;28;20127;-78
2023/04/18 09:58:24;;;;;;;8.48;5.68;;;12.50;58.90;;;;;;5006041;28;20061;-75
2023/04/18 10:00:51;;;;;;;7.43;5.50;;;12.30;59.20;;;;;;5057503;28;20056;-75
2023/04/18 10:03:18;;;;;;;11.70;5.50;;;12.20;59.70;;;;;;5039669;28;20406;-76
2023/04/18 10:05:46;;;;;;;9.63;5.20;;;12.20;59.10;;;;;;5041061;28;20060;-75
2023/04/18 10:08:15;;;;;;;10.48;5.85;;;12.10;59.80;;;;;;5023321;28;20122;-74
2023/04/18 10:10:42;;;;;;;8.32;5.45;;;12.20;59.30;;;;;;5040279;28;20263;-78
2023/04/18 10:13:10;;;;;;;7.05;5.57;;;12.30;59.60;;;;;;5039199;28;20047;-77
2023/04/18 10:15:37;;;;;;;7.15;5.30;;;12.50;59.50;;;;;;5040430;28;20129;-77
2023/04/18 10:18:08;;;;;;;9.23;5.63;;;12.50;59.30;;;;;;5023046;28;20064;-75
2023/04/18 10:20:34;;;;;;;8.43;5.90;;;12.40;58.10;;;;;;5057889;28;20433;-77
2023/04/18 10:23:36;;;;;;;9.45;5.85;;;12.30;59.00;;;;;;5039164;28;20028;-76
2023/04/18 10:26:09;;;;;;;8.02;5.70;;;12.50;59.90;;;;;;5058517;28;20044;-76
2023/04/18 10:29:04;;;;;;;7.57;5.22;;;12.50;59.40;;;;;;5030741;28;20064;-76
2023/04/18 10:31:37;;;;;;;7.75;5.90;;;12.70;59.00;;;;;;5033536;28;20193;-77
2023/04/18 10:34:05;;;;;;;8.30;5.55;;;12.60;59.10;;;;;;5057792;28;20272;-76
2023/04/18 10:36:31;;;;;;;8.30;5.82;;;12.70;59.00;;;;;;5043758;28;20467;-76
2023/04/18 10:39:20;;;;;;;9.40;6.40;;;12.80;59.20;;;;;;5056256;28;20484;-78
2023/04/18 10:41:50;;;;;;;7.47;5.60;;;13.10;60.10;;;;;;5058510;28;20045;-75
2023/04/18 10:44:18;;;;;;;8.07;5.72;;;13.50;59.10;;;;;;5039678;28;20370;-78
2023/04/18 10:46:50;;;;;;;8.57;5.85;;;13.70;58.60;;;;;;5043275;28;20135;-75
2023/04/18 10:49:26;;;;;;;9.75;5.93;;;13.60;58.30;;;;;;5038886;28;20090;-77
2023/04/18 10:51:57;;;;;;;11.85;6.50;;;13.50;58.50;;;;;;5059139;28;20048;-76
2023/04/18 10:54:53;;;;;;;8.70;6.15;;;13.60;58.70;;;;;;5066916;28;20124;-76
2023/04/18 10:57:19;;;;;;;10.27;6.50;;;13.70;57.80;;;;;;5027761;28;20703;-76
2023/04/18 10:59:49;;;;;;;11.70;6.35;;;13.70;58.90;;;;;;5061287;28;20060;-77
2023/04/18 11:02:28;;;;;;;7.63;5.72;;;13.70;58.80;;;;;;5044061;28;20056;-76
2023/04/18 11:04:56;;;;;;;8.30;6.10;;;13.80;58.80;;;;;;5062293;28;20128;-75
2023/04/18 11:07:37;;;;;;;6.97;6.18;;;13.90;59.30;;;;;;5043632;28;20048;-77
2023/04/18 11:10:05;;;;;;;10.73;6.30;;;14.20;59.00;;;;;;5062112;28;20049;-77
2023/04/18 11:12:33;;;;;;;7.75;5.97;;;14.20;58.90;;;;;;5060747;28;20036;-77
2023/04/18 11:15:03;;;;;;;10.68;5.55;;;14.20;59.00;;;;;;5043801;28;20442;-77
2023/04/18 11:17:34;;;;;;;10.48;5.97;;;14.20;58.60;;;;;;5044141;28;20044;-75
2023/04/18 11:20:11;;;;;;;9.90;6.25;;;14.00;58.30;;;;;;5043411;28;20542;-77
2023/04/18 11:22:53;;;;;;;9.18;5.88;;;13.90;58.90;;;;;;5042583;28;20164;-78
2023/04/18 11:25:22;;;;;;;7.25;5.65;;;13.70;58.40;;;;;;5032353;28;20106;-78
2023/04/18 11:27:54;;;;;;;8.13;5.53;;;13.60;59.40;;;;;;5044523;28;20055;-76
2023/04/18 11:30:20;;;;;;;8.80;5.28;;;13.60;58.80;;;;;;5044140;28;20438;-79
2023/04/18 11:32:46;;;;;;;7.72;5.32;;;13.50;58.90;;;;;;5064261;28;20045;-77
2023/04/18 11:35:13;;;;;;;6.38;5.35;;;13.40;59.00;;;;;;5060818;28;20052;-75
2023/04/18 11:37:40;;;;;;;8.40;5.22;;;13.40;59.30;;;;;;5045344;28;20120;-76
2023/04/18 11:40:08;;;;;;;7.88;5.35;;;13.50;59.90;;;;;;5060686;28;20055;-77
2023/04/18 11:42:36;;;;;;;5.72;4.38;;;13.50;59.20;;;;;;5059550;28;20374;-76
2023/04/18 11:45:02;;;;;;;9.32;5.30;;;13.50;59.40;;;;;;5044452;28;20598;-75
2023/04/18 11:47:30;;;;;;;7.13;4.82;;;13.50;59.40;;;;;;5026620;28;20058;-76
2023/04/18 11:50:05;;;;;;;7.13;5.00;;;13.60;59.40;;;;;;5043038;28;20117;-76
2023/04/18 11:52:32;;;;;;;5.78;4.40;;;13.70;59.30;;;;;;5057794;28;20059;-76
2023/04/18 11:55:22;;;;;;;5.60;3.80;;;13.90;59.40;;;;;;5047667;28;20064;-77
2023/04/18 11:57:52;;;;;;;7.55;4.03;;;13.90;58.70;;;;;;5028409;28;20056;-77
2023/04/18 12:00:32;;;;;;;7.83;4.00;;;13.90;58.70;;;;;;5061230;28;20053;-76
2023/04/18 12:03:00;;;;;;;6.60;4.57;;;13.60;58.90;;;;;;5060526;28;20856;-78
2023/04/18 12:05:33;;;;;;;7.70;4.30;;;13.50;59.10;;;;;;5060882;28;20090;-77
2023/04/18 12:08:12;;;;;;;6.43;4.10;;;13.60;59.20;;;;;;5026055;28;20046;-75
2023/04/18 12:10:58;;;;;;;6.97;3.67;;;13.70;59.20;;;;;;5060070;28;20049;-74
2023/04/18 12:13:25;;;;;;;5.15;3.72;;;13.80;59.20;;;;;;5058849;28;20515;-76
2023/04/18 12:15:51;;;;;;;4.30;3.65;;;13.70;59.10;;;;;;5060691;28;20499;-76
2023/04/18 12:18:18;;;;;;;7.65;3.50;;;13.70;59.10;;;;;;5045157;28;20037;-77
2023/04/18 12:20:52;;;;;;;5.25;3.53;;;13.70;59.10;;;;;;5025945;28;20049;-76
2023/04/18 12:23:38;;;;;;;5.47;3.78;;;13.70;58.70;;;;;;5039626;28;20056;-76
2023/04/18 12:26:17;;;;;;;5.43;3.00;;;13.70;58.20;;;;;;5030935;28;20048;-74
2023/04/18 12:28:49;;;;;;;3.42;3.13;;;13.50;58.80;;;;;;5019983;28;20058;-74
2023/04/18 12:31:15;;;;;;;3.70;2.92;;;13.70;59.10;;;;;;5042793;28;20045;-74
2023/04/18 12:33:41;;;;;;;5.32;3.17;;;13.90;58.90;;;;;;5059924;28;20151;-75
2023/04/18 12:36:08;;;;;;;6.25;3.50;;;13.90;59.10;;;;;;5055316;28;20106;-74
2023/04/18 12:38:34;;;;;;;4.53;3.25;;;14.00;58.90;;;;;;5053162;28;20692;-77
2023/04/18 12:41:00;;;;;;;6.35;4.05;;;14.00;59.00;;;;;;5043539;28;20123;-77
2023/04/18 12:43:26;;;;;;;6.90;4.10;;;13.90;59.10;;;;;;5060426;28;20040;-77
2023/04/18 12:45:51;;;;;;;5.25;3.75;;;13.90;59.30;;;;;;5060638;28;20064;-76
2023/04/18 12:48:17;;;;;;;5.20;3.30;;;13.80;59.30;;;;;;5044109;28;20080;-75
2023/04/18 12:50:43;;;;;;;7.57;3.53;;;13.50;59.60;;;;;;5062176;28;20376;-74
2023/04/18 12:53:08;;;;;;;4.57;3.85;;;13.50;59.90;;;;;;5064103;28;20265;-76
2023/04/18 12:55:35;;;;;;;9.85;5.07;;;13.60;59.80;;;;;;5063698;28;20123;-76
2023/04/18 12:58:01;;;;;;;6.50;4.55;;;13.70;59.60;;;;;;5044803;28;20110;-77
2023/04/18 13:00:30;;;;;;;5.68;4.28;;;13.50;59.50;;;;;;5026763;28;20052;-76
2023/04/18 13:02:55;;;;;;;8.25;4.38;;;13.50;59.90;;;;;;5042964;28;20515;-74
2023/04/18 13:05:23;;;;;;;5.25;3.85;;;13.50;59.70;;;;;;5061013;28;20055;-75
2023/04/18 13:07:52;;;;;;;5.82;4.15;;;13.50;59.50;;;;;;5026357;28;20048;-75
2023/04/18 13:10:20;;;;;;;5.72;4.45;;;13.30;59.50;;;;;;5042258;28;20040;-75
2023/04/18 13:12:47;;;;;;;8.05;4.47;;;13.30;59.70;;;;;;5042003;28;20136;-75
2023/04/18 13:15:13;;;;;;;8.68;4.63;;;13.10;59.80;;;;;;5060198;28;20495;-75
2023/04/18 13:17:39;;;;;;;6.72;4.70;;;13.10;60.00;;;;;;5009799;28;20082;-74
2023/04/18 13:20:09;;;;;;;6.22;4.05;;;13.10;59.90;;;;;;5060021;28;20110;-74
2023/04/18 13:22:35;;;;;;;6.60;4.60;;;13.10;60.00;;;;;;5059630;28;20455;-76
2023/04/18 13:25:01;;;;;;;7.07;4.60;;;13.10;60.10;;;;;;5042813;28;20047;-75
2023/04/18 13:27:28;;;;;;;5.78;4.35;;;13.00;60.00;;;;;;5043775;28;20097;-76
2023/04/18 13:29:54;;;;;;;7.95;4.53;;;12.90;60.00;;;;;;5060940;28;20042;-77
2023/04/18 13:32:20;;;;;;;7.35;4.70;;;12.70;60.00;;;;;;5041604;28;20127;-74
2023/04/18 13:34:47;;;;;;;8.57;5.10;;;12.70;60.30;;;;;;5060318;28;20068;-76
2023/04/18 13:37:15;;;;;;;8.68;5.45;;;12.70;60.20;;;;;;5027804;28;20044;-78
2023/04/18 13:39:42;;;;;;;8.18;4.97;;;12.90;60.30;;;;;;5041958;28;20045;-76
2023/04/18 13:42:08;;;;;;;6.45;5.10;;;13.00;59.90;;;;;;5059234;28;20044;-78
2023/04/18 13:44:35;;;;;;;7.82;5.47;;;13.10;60.30;;;;;;5043203;28;20032;-76
2023/04/18 13:47:02;;;;;;;7.07;5.70;;;13.20;59.80;;;;;;5026569;28;20044;-75
2023/04/18 13:49:28;;;;;;;8.13;5.70;;;13.30;59.90;;;;;;5041342;28;20727;-75
2023/04/18 13:51:56;;;;;;;7.70;6.20;;;13.10;59.70;;;;;;5060797;28;20318;-76
2023/04/18 13:54:30;;;;;;;7.57;6.18;;;13.10;60.00;;;;;;5051872;28;20056;-75
2023/04/18 13:56:58;;;;;;;7.93;5.88;;;13.00;59.90;;;;;;5044324;28;20389;-73
2023/04/18 13:59:25;;;;;;;9.80;6.32;;;13.00;60.10;;;;;;5040490;28;20048;-74
2023/04/18 14:01:51;;;;;;;10.80;6.75;;;13.00;59.80;;;;;;5042233;28;20055;-76
2023/04/18 14:04:18;;;;;;;9.55;7.03;;;13.00;59.80;;;;;;5059045;28;20056;-75
2023/04/18 14:06:44;;;;;;;8.48;6.60;;;13.00;60.00;;;;;;5045334;28;20051;-77
2023/04/18 14:09:10;;;;;;;9.90;6.90;;;13.00;60.10;;;;;;5041503;28;20048;-76
2023/04/18 14:11:36;;;;;;;10.90;6.65;;;12.80;59.90;;;;;;5060074;28;20048;-77
2023/04/18 14:14:02;;;;;;;11.20;7.55;;;12.80;60.20;;;;;;5058863;28;20098;-76
2023/04/18 14:16:30;;;;;;;11.10;8.05;;;13.00;60.40;;;;;;5047583;28;20746;-77
2023/04/18 14:18:56;;;;;;;12.77;7.57;;;12.90;60.30;;;;;;5050127;28;20045;-76
2023/04/18 14:21:22;;;;;;;11.45;8.52;;;12.90;60.50;;;;;;5042213;28;20060;-74
2023/04/18 14:23:48;;;;;;;13.60;9.02;;;13.00;60.30;;;;;;5059337;28;20534;-75
2023/04/18 14:26:13;;;;;;;12.15;9.05;;;12.90;60.40;;;;;;5049999;28;20490;-76
2023/04/18 14:28:39;;;;;;;10.80;8.50;;;12.70;60.50;;;;;;5056292;28;20063;-74
2023/04/18 14:31:05;;;;;;;12.85;8.75;;;12.50;60.70;;;;;;5063514;28;20052;-74
2023/04/18 14:33:34;;;;;;;13.30;9.07;;;12.50;60.40;;;;;;5035637;28;20103;-74
2023/04/18 14:36:03;;;;;;;12.88;9.25;;;12.30;60.70;;;;;;5031765;28;20057;-74
2023/04/18 14:38:29;;;;;;;12.77;9.50;;;12.40;61.00;;;;;;5047545;28;20075;-75
2023/04/18 14:40:57;;;;;;;14.10;9.15;;;12.50;60.80;;;;;;5063362;28;20045;-75
2023/04/18 14:43:22;;;;;;;10.57;9.13;;;12.70;60.70;;;;;;5062661;28;20113;-74
2023/04/18 14:45:48;;;;;;;11.88;9.32;;;12.80;60.80;;;;;;5063143;28;20056;-76
2023/04/18 14:48:14;;;;;;;13.23;9.45;;;12.90;60.90;;;;;;5046857;28;20345;-75
2023/04/18 14:50:40;;;;;;;11.93;8.90;;;13.00;60.90;;;;;;5062678;28;20652;-75
2023/04/18 14:53:07;;;;;;;12.90;8.88;;;13.00;60.60;;;;;;5065376;28;20048;-75
2023/04/18 14:55:33;;;;;;;12.52;8.48;;;13.10;60.40;;;;;;5076377;28;20076;-76
2023/04/18 14:57:59;;;;;;;10.80;8.60;;;13.10;60.40;;;;;;5028587;28;20471;-75
2023/04/18 15:00:25;;;;;;;12.05;8.32;;;13.10;60.50;;;;;;5045082;28;20580;-76
2023/04/18 15:02:51;;;;;;;11.18;8.45;;;13.10;60.70;;;;;;5062319;28;20045;-75
2023/04/18 15:05:18;;;;;;;9.90;8.23;;;13.30;60.80;;;;;;5028280;28;20511;-76